SWR493Z EDDH-LSZH
Flight info
| Callsign | SWR493Z |
|---|---|
| Flight time | 1h 26m |
| Altitude | 35000 |
| Route | IDEKO8C IDEKO N850 ROBEG DCT SWALM DCT OMOGI T721 RILAX |
| Aircraft | A320/M-SDE3FGHIRWY/LB1 |
Departure
| Time | 2026-05-06 12:49 |
|---|---|
| Airport | Hamburg Helmut Schmidt Airport (EDDH) |
Arrival
| Time | 2026-05-06 14:16 |
|---|---|
| Airport | Zürich Airport (LSZH) |
| Time | Latitude | Longitude | Altitude | Speed | Heading |
|---|---|---|---|---|---|
| 2026-05-06 11:44 | 53.62942 | 10.00288 | 47 ft | 0 kts | 123° |
| 2026-05-06 11:44 | 53.62940 | 10.00294 | 49 ft | 0 kts | 122° |
| 2026-05-06 12:03 | 53.62940 | 10.00293 | 48 ft | 0 kts | 122° |
| 2026-05-06 12:32 | 53.62952 | 10.00262 | 44 ft | 4 kts | 122° |
| 2026-05-06 12:32 | 53.62967 | 10.00224 | 46 ft | 4 kts | 122° |
| 2026-05-06 12:32 | 53.62981 | 10.00186 | 47 ft | 3 kts | 122° |
| 2026-05-06 12:33 | 53.62993 | 10.00156 | 45 ft | 4 kts | 136° |
| 2026-05-06 12:33 | 53.63014 | 10.00135 | 48 ft | 4 kts | 182° |
| 2026-05-06 12:33 | 53.63029 | 10.00140 | 45 ft | 0 kts | 213° |
| 2026-05-06 12:34 | 53.63029 | 10.00141 | 45 ft | 0 kts | 213° |
| 2026-05-06 12:36 | 53.62999 | 10.00108 | 45 ft | 12 kts | 213° |
| 2026-05-06 12:37 | 53.62945 | 10.00049 | 47 ft | 10 kts | 216° |
| 2026-05-06 12:37 | 53.62886 | 10.00039 | 48 ft | 8 kts | 177° |
| 2026-05-06 12:37 | 53.62830 | 9.99984 | 48 ft | 11 kts | 213° |
| 2026-05-06 12:37 | 53.62723 | 9.99883 | 46 ft | 19 kts | 208° |
| 2026-05-06 12:38 | 53.62639 | 9.99749 | 47 ft | 16 kts | 254° |
| 2026-05-06 12:38 | 53.62616 | 9.99560 | 47 ft | 18 kts | 259° |
| 2026-05-06 12:38 | 53.62594 | 9.99361 | 47 ft | 16 kts | 259° |
| 2026-05-06 12:38 | 53.62570 | 9.99157 | 47 ft | 20 kts | 259° |
| 2026-05-06 12:39 | 53.62545 | 9.98938 | 47 ft | 18 kts | 259° |
| 2026-05-06 12:39 | 53.62523 | 9.98743 | 47 ft | 16 kts | 259° |
| 2026-05-06 12:39 | 53.62499 | 9.98527 | 47 ft | 19 kts | 259° |
| 2026-05-06 12:39 | 53.62471 | 9.98276 | 47 ft | 24 kts | 259° |
| 2026-05-06 12:40 | 53.62403 | 9.98036 | 47 ft | 22 kts | 236° |
| 2026-05-06 12:40 | 53.62317 | 9.97859 | 47 ft | 18 kts | 231° |
| 2026-05-06 12:40 | 53.62253 | 9.97733 | 47 ft | 13 kts | 229° |
| 2026-05-06 12:40 | 53.62199 | 9.97623 | 47 ft | 12 kts | 230° |
| 2026-05-06 12:41 | 53.62151 | 9.97524 | 47 ft | 10 kts | 230° |
| 2026-05-06 12:41 | 53.62109 | 9.97438 | 47 ft | 10 kts | 230° |
| 2026-05-06 12:41 | 53.62025 | 9.97269 | 47 ft | 23 kts | 230° |
| 2026-05-06 12:41 | 53.61928 | 9.97074 | 47 ft | 20 kts | 230° |
| 2026-05-06 12:42 | 53.61843 | 9.96902 | 47 ft | 18 kts | 230° |
| 2026-05-06 12:42 | 53.61763 | 9.96738 | 47 ft | 21 kts | 230° |
| 2026-05-06 12:42 | 53.61685 | 9.96582 | 47 ft | 13 kts | 230° |
| 2026-05-06 12:42 | 53.61680 | 9.96453 | 45 ft | 11 kts | 301° |
| 2026-05-06 12:43 | 53.61713 | 9.96417 | 47 ft | 0 kts | 347° |
| 2026-05-06 12:45 | 53.61773 | 9.96422 | 46 ft | 10 kts | 5° |
| 2026-05-06 12:46 | 53.61851 | 9.96435 | 45 ft | 9 kts | 9° |
| 2026-05-06 12:46 | 53.61885 | 9.96491 | 44 ft | 0 kts | 51° |
| 2026-05-06 12:48 | 53.61886 | 9.96492 | 44 ft | 0 kts | 51° |
| 2026-05-06 12:49 | 53.61972 | 9.96668 | 43 ft | 56 kts | 50° |
| 2026-05-06 12:49 | 53.62373 | 9.97477 | 40 ft | 120 kts | 50° |
| 2026-05-06 12:49 | 53.62771 | 9.98285 | 93 ft | 146 kts | 51° |
| 2026-05-06 12:49 | 53.63399 | 9.99558 | 831 ft | 139 kts | 51° |
| 2026-05-06 12:50 | 53.64019 | 10.00827 | 1559 ft | 140 kts | 51° |
| 2026-05-06 12:50 | 53.64639 | 10.02093 | 2222 ft | 141 kts | 51° |
| 2026-05-06 12:50 | 53.65266 | 10.03369 | 2864 ft | 141 kts | 51° |
| 2026-05-06 12:50 | 53.65901 | 10.04663 | 3388 ft | 150 kts | 52° |
| 2026-05-06 12:51 | 53.66617 | 10.06121 | 3705 ft | 172 kts | 52° |
| 2026-05-06 12:51 | 53.67431 | 10.07780 | 3998 ft | 195 kts | 52° |
| 2026-05-06 12:51 | 53.68358 | 10.09537 | 4521 ft | 206 kts | 41° |
| 2026-05-06 12:51 | 53.69699 | 10.10508 | 5114 ft | 220 kts | 8° |
| 2026-05-06 12:52 | 53.71227 | 10.10016 | 5779 ft | 236 kts | 335° |
| 2026-05-06 12:52 | 53.72459 | 10.07956 | 6160 ft | 268 kts | 304° |
| 2026-05-06 12:52 | 53.73408 | 10.05121 | 6747 ft | 283 kts | 299° |
| 2026-05-06 12:52 | 53.74277 | 10.02093 | 7569 ft | 289 kts | 293° |
| 2026-05-06 12:53 | 53.74719 | 9.98764 | 8475 ft | 293 kts | 274° |
| 2026-05-06 12:53 | 53.74585 | 9.95333 | 9474 ft | 293 kts | 258° |
| 2026-05-06 12:53 | 53.73935 | 9.92060 | 10327 ft | 298 kts | 246° |
| 2026-05-06 12:53 | 53.73087 | 9.88697 | 10605 ft | 322 kts | 246° |
| 2026-05-06 12:54 | 53.72183 | 9.85127 | 11005 ft | 338 kts | 246° |
| 2026-05-06 12:54 | 53.71249 | 9.81441 | 11692 ft | 344 kts | 246° |
| 2026-05-06 12:54 | 53.70302 | 9.77710 | 12444 ft | 348 kts | 245° |
| 2026-05-06 12:54 | 53.69340 | 9.73943 | 13189 ft | 352 kts | 244° |
| 2026-05-06 12:55 | 53.68367 | 9.70133 | 13895 ft | 355 kts | 245° |
| 2026-05-06 12:55 | 53.67372 | 9.66295 | 14588 ft | 357 kts | 242° |
| 2026-05-06 12:55 | 53.66040 | 9.62771 | 15260 ft | 356 kts | 228° |
| 2026-05-06 12:55 | 53.64247 | 9.59923 | 15935 ft | 356 kts | 214° |
| 2026-05-06 12:56 | 53.62077 | 9.57892 | 16584 ft | 358 kts | 201° |
| 2026-05-06 12:56 | 53.59669 | 9.56828 | 17238 ft | 360 kts | 187° |
| 2026-05-06 12:56 | 53.57176 | 9.56350 | 17945 ft | 362 kts | 186° |
| 2026-05-06 12:56 | 53.54657 | 9.55864 | 18605 ft | 365 kts | 186° |
| 2026-05-06 12:57 | 53.52122 | 9.55366 | 19260 ft | 368 kts | 187° |
| 2026-05-06 12:57 | 53.49560 | 9.54859 | 19902 ft | 372 kts | 187° |
| 2026-05-06 12:57 | 53.46978 | 9.54347 | 20502 ft | 376 kts | 187° |
| 2026-05-06 12:57 | 53.44367 | 9.53829 | 21068 ft | 380 kts | 187° |
| 2026-05-06 12:58 | 53.41727 | 9.53304 | 21626 ft | 383 kts | 187° |
| 2026-05-06 12:58 | 53.39068 | 9.52778 | 22186 ft | 387 kts | 187° |
| 2026-05-06 12:58 | 53.36384 | 9.52251 | 22722 ft | 390 kts | 187° |
| 2026-05-06 12:58 | 53.33670 | 9.51718 | 23209 ft | 394 kts | 187° |
| 2026-05-06 12:59 | 53.30927 | 9.51179 | 23645 ft | 398 kts | 187° |
| 2026-05-06 12:59 | 53.28176 | 9.50638 | 24080 ft | 400 kts | 187° |
| 2026-05-06 12:59 | 53.25397 | 9.50094 | 24510 ft | 402 kts | 187° |
| 2026-05-06 12:59 | 53.22616 | 9.49554 | 24914 ft | 404 kts | 186° |
| 2026-05-06 13:00 | 53.19854 | 9.49019 | 25312 ft | 406 kts | 186° |
| 2026-05-06 13:00 | 53.17034 | 9.48473 | 25731 ft | 410 kts | 186° |
| 2026-05-06 13:00 | 53.14197 | 9.47922 | 26204 ft | 412 kts | 186° |
| 2026-05-06 13:00 | 53.11340 | 9.47369 | 26650 ft | 414 kts | 186° |
| 2026-05-06 13:01 | 53.08471 | 9.46813 | 27022 ft | 416 kts | 186° |
| 2026-05-06 13:01 | 53.05589 | 9.46255 | 27364 ft | 419 kts | 186° |
| 2026-05-06 13:01 | 53.02685 | 9.45693 | 27708 ft | 421 kts | 186° |
| 2026-05-06 13:01 | 52.99766 | 9.45131 | 28090 ft | 423 kts | 186° |
| 2026-05-06 13:02 | 52.96827 | 9.44553 | 28421 ft | 425 kts | 186° |
| 2026-05-06 13:02 | 52.93889 | 9.43936 | 28731 ft | 427 kts | 186° |
| 2026-05-06 13:02 | 52.90931 | 9.43288 | 29036 ft | 430 kts | 186° |
| 2026-05-06 13:02 | 52.87959 | 9.42630 | 29338 ft | 432 kts | 186° |
| 2026-05-06 13:03 | 52.84968 | 9.41973 | 29585 ft | 435 kts | 186° |
| 2026-05-06 13:03 | 52.81960 | 9.41322 | 29829 ft | 438 kts | 185° |
| 2026-05-06 13:03 | 52.78930 | 9.40674 | 30065 ft | 440 kts | 185° |
| 2026-05-06 13:03 | 52.75846 | 9.40021 | 30299 ft | 441 kts | 186° |
| 2026-05-06 13:04 | 52.72841 | 9.39387 | 30527 ft | 442 kts | 186° |
| 2026-05-06 13:04 | 52.69781 | 9.38740 | 30758 ft | 444 kts | 186° |
| 2026-05-06 13:04 | 52.66720 | 9.38094 | 31057 ft | 442 kts | 186° |
| 2026-05-06 13:04 | 52.63671 | 9.37449 | 31395 ft | 441 kts | 186° |
| 2026-05-06 13:05 | 52.60635 | 9.36784 | 31713 ft | 440 kts | 187° |
| 2026-05-06 13:05 | 52.57607 | 9.36034 | 32028 ft | 439 kts | 188° |
| 2026-05-06 13:05 | 52.54598 | 9.35228 | 32352 ft | 438 kts | 189° |
| 2026-05-06 13:05 | 52.51595 | 9.34395 | 32674 ft | 437 kts | 189° |
| 2026-05-06 13:06 | 52.48602 | 9.33567 | 32990 ft | 436 kts | 189° |
| 2026-05-06 13:06 | 52.45615 | 9.32758 | 33318 ft | 434 kts | 189° |
| 2026-05-06 13:06 | 52.42636 | 9.31971 | 33642 ft | 433 kts | 189° |
| 2026-05-06 13:06 | 52.39663 | 9.31197 | 33936 ft | 432 kts | 190° |
| 2026-05-06 13:07 | 52.36698 | 9.30431 | 34196 ft | 431 kts | 190° |
| 2026-05-06 13:07 | 52.33739 | 9.29671 | 34448 ft | 430 kts | 190° |
| 2026-05-06 13:07 | 52.30785 | 9.28909 | 34683 ft | 430 kts | 190° |
| 2026-05-06 13:07 | 52.27833 | 9.28143 | 34788 ft | 430 kts | 191° |
| 2026-05-06 13:08 | 52.24889 | 9.27375 | 34812 ft | 428 kts | 191° |
| 2026-05-06 13:08 | 52.18936 | 9.26755 | 34812 ft | 429 kts | 183° |
| 2026-05-06 13:09 | 52.12975 | 9.26498 | 34813 ft | 428 kts | 184° |
| 2026-05-06 13:09 | 52.07015 | 9.26261 | 34813 ft | 427 kts | 184° |
| 2026-05-06 13:10 | 52.01071 | 9.26004 | 34810 ft | 427 kts | 184° |
| 2026-05-06 13:10 | 51.95127 | 9.25739 | 34810 ft | 427 kts | 184° |
| 2026-05-06 13:11 | 51.89188 | 9.25479 | 34799 ft | 427 kts | 184° |
| 2026-05-06 13:11 | 51.83248 | 9.25235 | 34801 ft | 427 kts | 184° |
| 2026-05-06 13:12 | 51.77312 | 9.24985 | 34795 ft | 426 kts | 184° |
| 2026-05-06 13:12 | 51.71388 | 9.24732 | 34791 ft | 426 kts | 184° |
| 2026-05-06 13:13 | 51.65498 | 9.24464 | 34777 ft | 426 kts | 184° |
| 2026-05-06 13:13 | 51.59579 | 9.24214 | 34772 ft | 425 kts | 184° |
| 2026-05-06 13:14 | 51.53629 | 9.23967 | 34765 ft | 425 kts | 184° |
| 2026-05-06 13:14 | 51.47724 | 9.23711 | 34767 ft | 425 kts | 184° |
| 2026-05-06 13:15 | 51.41806 | 9.23458 | 34751 ft | 425 kts | 184° |
| 2026-05-06 13:15 | 51.35901 | 9.23215 | 34761 ft | 424 kts | 184° |
| 2026-05-06 13:16 | 51.29994 | 9.22975 | 34758 ft | 424 kts | 184° |
| 2026-05-06 13:16 | 51.24094 | 9.22733 | 34753 ft | 424 kts | 184° |
| 2026-05-06 13:17 | 51.18194 | 9.22479 | 34752 ft | 424 kts | 184° |
| 2026-05-06 13:17 | 51.12290 | 9.22225 | 34762 ft | 424 kts | 184° |
| 2026-05-06 13:18 | 51.06392 | 9.21963 | 34765 ft | 424 kts | 184° |
| 2026-05-06 13:18 | 51.00500 | 9.21730 | 34765 ft | 424 kts | 184° |
| 2026-05-06 13:19 | 50.94607 | 9.21493 | 34761 ft | 423 kts | 184° |
| 2026-05-06 13:19 | 50.88722 | 9.21245 | 34759 ft | 423 kts | 184° |
| 2026-05-06 13:20 | 50.82872 | 9.21009 | 34753 ft | 422 kts | 184° |
| 2026-05-06 13:20 | 50.76994 | 9.20774 | 34749 ft | 422 kts | 184° |
| 2026-05-06 13:21 | 50.71132 | 9.20428 | 34745 ft | 421 kts | 189° |
| 2026-05-06 13:21 | 50.65327 | 9.19205 | 34745 ft | 420 kts | 189° |
| 2026-05-06 13:22 | 50.60286 | 9.18161 | 34739 ft | 420 kts | 189° |
| 2026-05-06 13:22 | 50.54481 | 9.16977 | 34744 ft | 420 kts | 189° |
| 2026-05-06 13:23 | 50.48678 | 9.15789 | 34743 ft | 420 kts | 189° |
| 2026-05-06 13:23 | 50.42883 | 9.14591 | 34747 ft | 420 kts | 189° |
| 2026-05-06 13:24 | 50.37076 | 9.13399 | 34749 ft | 420 kts | 189° |
| 2026-05-06 13:24 | 50.31280 | 9.12201 | 34755 ft | 420 kts | 189° |
| 2026-05-06 13:25 | 50.25493 | 9.11013 | 34752 ft | 419 kts | 189° |
| 2026-05-06 13:25 | 50.19715 | 9.09839 | 34771 ft | 418 kts | 189° |
| 2026-05-06 13:26 | 50.13951 | 9.08659 | 34773 ft | 417 kts | 189° |
| 2026-05-06 13:26 | 50.08194 | 9.07485 | 34773 ft | 417 kts | 189° |
| 2026-05-06 13:27 | 50.02432 | 9.06312 | 34773 ft | 417 kts | 189° |
| 2026-05-06 13:27 | 49.96680 | 9.05159 | 34775 ft | 416 kts | 189° |
| 2026-05-06 13:28 | 49.91906 | 9.04205 | 34768 ft | 416 kts | 189° |
| 2026-05-06 13:28 | 49.86162 | 9.03052 | 34771 ft | 416 kts | 189° |
| 2026-05-06 13:29 | 49.80413 | 9.01897 | 34766 ft | 416 kts | 189° |
| 2026-05-06 13:29 | 49.74668 | 9.00734 | 34766 ft | 417 kts | 189° |
| 2026-05-06 13:30 | 49.68907 | 8.99567 | 34767 ft | 417 kts | 189° |
| 2026-05-06 13:30 | 49.63152 | 8.98370 | 34769 ft | 417 kts | 191° |
| 2026-05-06 13:31 | 49.57440 | 8.96819 | 34770 ft | 416 kts | 192° |
| 2026-05-06 13:31 | 49.51742 | 8.95148 | 34781 ft | 416 kts | 192° |
| 2026-05-06 13:32 | 49.46041 | 8.93528 | 34784 ft | 417 kts | 192° |
| 2026-05-06 13:32 | 49.40344 | 8.91976 | 34786 ft | 417 kts | 192° |
| 2026-05-06 13:33 | 49.34631 | 8.90431 | 34787 ft | 416 kts | 192° |
| 2026-05-06 13:33 | 49.28927 | 8.88888 | 34791 ft | 416 kts | 192° |
| 2026-05-06 13:34 | 49.23225 | 8.87340 | 34793 ft | 416 kts | 192° |
| 2026-05-06 13:34 | 49.17532 | 8.85796 | 34786 ft | 415 kts | 192° |
| 2026-05-06 13:35 | 49.11888 | 8.84252 | 34803 ft | 414 kts | 192° |
| 2026-05-06 13:35 | 49.06213 | 8.82697 | 34816 ft | 414 kts | 192° |
| 2026-05-06 13:36 | 49.00553 | 8.81164 | 34813 ft | 413 kts | 192° |
| 2026-05-06 13:36 | 48.94893 | 8.79630 | 34813 ft | 412 kts | 192° |
| 2026-05-06 13:37 | 48.89246 | 8.78097 | 34820 ft | 411 kts | 192° |
| 2026-05-06 13:37 | 48.83626 | 8.76588 | 34820 ft | 409 kts | 192° |
| 2026-05-06 13:38 | 48.78017 | 8.75087 | 34672 ft | 408 kts | 192° |
| 2026-05-06 13:38 | 48.75240 | 8.74342 | 34432 ft | 406 kts | 192° |
| 2026-05-06 13:38 | 48.72482 | 8.73603 | 34193 ft | 403 kts | 192° |
| 2026-05-06 13:38 | 48.69725 | 8.72868 | 33955 ft | 401 kts | 193° |
| 2026-05-06 13:39 | 48.66985 | 8.72141 | 33431 ft | 400 kts | 192° |
| 2026-05-06 13:39 | 48.64243 | 8.71409 | 32549 ft | 401 kts | 192° |
| 2026-05-06 13:39 | 48.61482 | 8.70669 | 31761 ft | 401 kts | 192° |
| 2026-05-06 13:39 | 48.58758 | 8.69940 | 31284 ft | 395 kts | 191° |
| 2026-05-06 13:40 | 48.56069 | 8.69221 | 30734 ft | 391 kts | 191° |
| 2026-05-06 13:40 | 48.53403 | 8.68511 | 30190 ft | 387 kts | 191° |
| 2026-05-06 13:40 | 48.50761 | 8.67813 | 29615 ft | 384 kts | 190° |
| 2026-05-06 13:40 | 48.48151 | 8.67124 | 29076 ft | 379 kts | 190° |
| 2026-05-06 13:41 | 48.45563 | 8.66439 | 28560 ft | 374 kts | 190° |
| 2026-05-06 13:41 | 48.43017 | 8.65767 | 28048 ft | 370 kts | 190° |
| 2026-05-06 13:41 | 48.40491 | 8.65102 | 27553 ft | 367 kts | 190° |
| 2026-05-06 13:41 | 48.37984 | 8.64445 | 26998 ft | 365 kts | 190° |
| 2026-05-06 13:42 | 48.35492 | 8.63754 | 26440 ft | 364 kts | 191° |
| 2026-05-06 13:42 | 48.33015 | 8.63014 | 25897 ft | 363 kts | 192° |
| 2026-05-06 13:42 | 48.30541 | 8.62249 | 25357 ft | 363 kts | 192° |
| 2026-05-06 13:42 | 48.28063 | 8.61475 | 24829 ft | 363 kts | 192° |
| 2026-05-06 13:43 | 48.25600 | 8.60712 | 24311 ft | 362 kts | 191° |
| 2026-05-06 13:43 | 48.23138 | 8.59959 | 23807 ft | 361 kts | 191° |
| 2026-05-06 13:43 | 48.20676 | 8.59213 | 23293 ft | 360 kts | 191° |
| 2026-05-06 13:43 | 48.18229 | 8.58478 | 22783 ft | 357 kts | 191° |
| 2026-05-06 13:44 | 48.15805 | 8.57754 | 22314 ft | 354 kts | 191° |
| 2026-05-06 13:44 | 48.13395 | 8.57036 | 21840 ft | 351 kts | 191° |
| 2026-05-06 13:44 | 48.11000 | 8.56324 | 21366 ft | 350 kts | 191° |
| 2026-05-06 13:44 | 48.08617 | 8.55613 | 20881 ft | 349 kts | 191° |
| 2026-05-06 13:45 | 48.06236 | 8.54901 | 20409 ft | 349 kts | 191° |
| 2026-05-06 13:45 | 48.01544 | 8.53508 | 19416 ft | 350 kts | 191° |
| 2026-05-06 13:45 | 47.99089 | 8.52782 | 18886 ft | 351 kts | 191° |
| 2026-05-06 13:46 | 47.96672 | 8.52388 | 18371 ft | 351 kts | 179° |
| 2026-05-06 13:46 | 47.94258 | 8.52912 | 17812 ft | 353 kts | 165° |
| 2026-05-06 13:46 | 47.92032 | 8.54329 | 17291 ft | 352 kts | 150° |
| 2026-05-06 13:46 | 47.90073 | 8.56490 | 16794 ft | 351 kts | 142° |
| 2026-05-06 13:47 | 47.88222 | 8.58755 | 16299 ft | 349 kts | 143° |
| 2026-05-06 13:47 | 47.86365 | 8.61022 | 15804 ft | 348 kts | 143° |
| 2026-05-06 13:47 | 47.84465 | 8.63334 | 15294 ft | 349 kts | 143° |
| 2026-05-06 13:47 | 47.82577 | 8.65624 | 14801 ft | 349 kts | 143° |
| 2026-05-06 13:48 | 47.80700 | 8.67896 | 14311 ft | 349 kts | 143° |
| 2026-05-06 13:48 | 47.78811 | 8.70172 | 13817 ft | 347 kts | 143° |
| 2026-05-06 13:48 | 47.76929 | 8.72391 | 13403 ft | 343 kts | 144° |
| 2026-05-06 13:48 | 47.75075 | 8.74576 | 12999 ft | 338 kts | 144° |
| 2026-05-06 13:49 | 47.73233 | 8.76756 | 12531 ft | 336 kts | 144° |
| 2026-05-06 13:49 | 47.71372 | 8.78812 | 12032 ft | 331 kts | 154° |
| 2026-05-06 13:49 | 47.69219 | 8.79842 | 11582 ft | 321 kts | 177° |
| 2026-05-06 13:49 | 47.67004 | 8.79920 | 11072 ft | 318 kts | 184° |
| 2026-05-06 13:50 | 47.64817 | 8.79909 | 10896 ft | 307 kts | 184° |
| 2026-05-06 13:50 | 47.62717 | 8.79924 | 10768 ft | 295 kts | 184° |
| 2026-05-06 13:50 | 47.60702 | 8.79952 | 10647 ft | 284 kts | 184° |
| 2026-05-06 13:50 | 47.58789 | 8.79991 | 10521 ft | 274 kts | 184° |
| 2026-05-06 13:51 | 47.56882 | 8.80037 | 10258 ft | 269 kts | 184° |
| 2026-05-06 13:51 | 47.55039 | 8.80090 | 9948 ft | 267 kts | 184° |
| 2026-05-06 13:51 | 47.53189 | 8.80162 | 9591 ft | 266 kts | 182° |
| 2026-05-06 13:51 | 47.51369 | 8.80776 | 9194 ft | 276 kts | 158° |
| 2026-05-06 13:52 | 47.49885 | 8.82614 | 8807 ft | 285 kts | 129° |
| 2026-05-06 13:52 | 47.49092 | 8.85314 | 8417 ft | 292 kts | 101° |
| 2026-05-06 13:52 | 47.48886 | 8.88318 | 8036 ft | 293 kts | 94° |
| 2026-05-06 13:52 | 47.48780 | 8.91306 | 7685 ft | 291 kts | 94° |
| 2026-05-06 13:53 | 47.48694 | 8.94297 | 7308 ft | 290 kts | 94° |
| 2026-05-06 13:53 | 47.48604 | 8.97278 | 6888 ft | 290 kts | 94° |
| 2026-05-06 13:53 | 47.48524 | 9.00237 | 6499 ft | 288 kts | 94° |
| 2026-05-06 13:53 | 47.48450 | 9.03187 | 6190 ft | 284 kts | 94° |
| 2026-05-06 13:54 | 47.48365 | 9.06055 | 6057 ft | 274 kts | 97° |
| 2026-05-06 13:54 | 47.47884 | 9.08717 | 5973 ft | 266 kts | 118° |
| 2026-05-06 13:54 | 47.46872 | 9.10970 | 5910 ft | 268 kts | 140° |
| 2026-05-06 13:54 | 47.45337 | 9.12563 | 5840 ft | 271 kts | 163° |
| 2026-05-06 13:55 | 47.43536 | 9.13161 | 5775 ft | 263 kts | 184° |
| 2026-05-06 13:55 | 47.41759 | 9.12741 | 5718 ft | 257 kts | 204° |
| 2026-05-06 13:55 | 47.40244 | 9.11464 | 5660 ft | 253 kts | 223° |
| 2026-05-06 13:55 | 47.39132 | 9.09503 | 5604 ft | 249 kts | 242° |
| 2026-05-06 13:56 | 47.38550 | 9.07121 | 5546 ft | 248 kts | 261° |
| 2026-05-06 13:56 | 47.38559 | 9.04573 | 5491 ft | 252 kts | 279° |
| 2026-05-06 13:56 | 47.39180 | 9.02139 | 5435 ft | 257 kts | 298° |
| 2026-05-06 13:56 | 47.40365 | 9.00141 | 5375 ft | 262 kts | 317° |
| 2026-05-06 13:57 | 47.41716 | 8.98354 | 5315 ft | 259 kts | 306° |
| 2026-05-06 13:57 | 47.42600 | 8.96081 | 5265 ft | 254 kts | 286° |
| 2026-05-06 13:57 | 47.42923 | 8.93537 | 5208 ft | 252 kts | 275° |
| 2026-05-06 13:57 | 47.43136 | 8.90984 | 5148 ft | 247 kts | 276° |
| 2026-05-06 13:58 | 47.43337 | 8.88543 | 5098 ft | 233 kts | 275° |
| 2026-05-06 13:58 | 47.43525 | 8.86233 | 5052 ft | 221 kts | 275° |
| 2026-05-06 13:58 | 47.43703 | 8.84039 | 4997 ft | 208 kts | 275° |
| 2026-05-06 13:58 | 47.43867 | 8.81999 | 4952 ft | 193 kts | 275° |
| 2026-05-06 13:59 | 47.44016 | 8.80086 | 4792 ft | 183 kts | 274° |
| 2026-05-06 13:59 | 47.44150 | 8.78241 | 4503 ft | 179 kts | 274° |
| 2026-05-06 13:59 | 47.44279 | 8.76436 | 4236 ft | 176 kts | 274° |
| 2026-05-06 13:59 | 47.44406 | 8.74642 | 3980 ft | 174 kts | 274° |
| 2026-05-06 14:00 | 47.44531 | 8.72899 | 3733 ft | 169 kts | 274° |
| 2026-05-06 14:00 | 47.44653 | 8.71197 | 3491 ft | 165 kts | 273° |
| 2026-05-06 14:00 | 47.44772 | 8.69543 | 3261 ft | 153 kts | 273° |
| 2026-05-06 14:00 | 47.44881 | 8.68063 | 3048 ft | 139 kts | 273° |
| 2026-05-06 14:01 | 47.44980 | 8.66672 | 2848 ft | 134 kts | 272° |
| 2026-05-06 14:01 | 47.45077 | 8.65306 | 2645 ft | 133 kts | 272° |
| 2026-05-06 14:01 | 47.45175 | 8.63946 | 2444 ft | 133 kts | 273° |
| 2026-05-06 14:01 | 47.45271 | 8.62605 | 2242 ft | 131 kts | 274° |
| 2026-05-06 14:02 | 47.45384 | 8.61290 | 2107 ft | 132 kts | 276° |
| 2026-05-06 14:02 | 47.45462 | 8.59954 | 1938 ft | 131 kts | 273° |
| 2026-05-06 14:02 | 47.45552 | 8.58596 | 1715 ft | 131 kts | 275° |
| 2026-05-06 14:02 | 47.45646 | 8.57271 | 1500 ft | 129 kts | 274° |
| 2026-05-06 14:03 | 47.45724 | 8.56061 | 1456 ft | 112 kts | 275° |
| 2026-05-06 14:03 | 47.45844 | 8.54796 | 1955 ft | 135 kts | 275° |
| 2026-05-06 14:03 | 47.45951 | 8.53460 | 2919 ft | 117 kts | 273° |
| 2026-05-06 14:03 | 47.46022 | 8.52287 | 3365 ft | 122 kts | 272° |
| 2026-05-06 14:04 | 47.46107 | 8.50932 | 3546 ft | 143 kts | 272° |
| 2026-05-06 14:04 | 47.46211 | 8.49325 | 3687 ft | 172 kts | 273° |
| 2026-05-06 14:04 | 47.46335 | 8.47451 | 3927 ft | 192 kts | 274° |
| 2026-05-06 14:04 | 47.46237 | 8.45500 | 4194 ft | 198 kts | 247° |
| 2026-05-06 14:05 | 47.45493 | 8.43722 | 4728 ft | 207 kts | 235° |
| 2026-05-06 14:05 | 47.44368 | 8.42371 | 5521 ft | 215 kts | 204° |
| 2026-05-06 14:05 | 47.42871 | 8.42027 | 6406 ft | 222 kts | 186° |
| 2026-05-06 14:05 | 47.41301 | 8.42020 | 6822 ft | 227 kts | 184° |
| 2026-05-06 14:06 | 47.39748 | 8.42067 | 6952 ft | 226 kts | 184° |
| 2026-05-06 14:06 | 47.38181 | 8.42119 | 6971 ft | 225 kts | 184° |
| 2026-05-06 14:06 | 47.36616 | 8.42182 | 6979 ft | 224 kts | 181° |
| 2026-05-06 14:06 | 47.35120 | 8.42877 | 6978 ft | 235 kts | 150° |
| 2026-05-06 14:07 | 47.34030 | 8.44721 | 6906 ft | 246 kts | 117° |
| 2026-05-06 14:07 | 47.33657 | 8.47190 | 6887 ft | 251 kts | 97° |
| 2026-05-06 14:07 | 47.33566 | 8.49779 | 6890 ft | 253 kts | 94° |
| 2026-05-06 14:07 | 47.33515 | 8.52361 | 6890 ft | 252 kts | 94° |
| 2026-05-06 14:08 | 47.33464 | 8.54953 | 6893 ft | 253 kts | 94° |
| 2026-05-06 14:08 | 47.33408 | 8.57550 | 6984 ft | 254 kts | 94° |
| 2026-05-06 14:08 | 47.33350 | 8.60218 | 7004 ft | 273 kts | 94° |
| 2026-05-06 14:08 | 47.33306 | 8.62100 | 7005 ft | 281 kts | 94° |
| 2026-05-06 14:09 | 47.33234 | 8.65013 | 6790 ft | 285 kts | 94° |
| 2026-05-06 14:09 | 47.33164 | 8.67929 | 6538 ft | 284 kts | 94° |
| 2026-05-06 14:09 | 47.33093 | 8.70839 | 6292 ft | 283 kts | 94° |
| 2026-05-06 14:09 | 47.33021 | 8.73727 | 6001 ft | 280 kts | 94° |
| 2026-05-06 14:10 | 47.32946 | 8.76572 | 5382 ft | 278 kts | 92° |
| 2026-05-06 14:10 | 47.33210 | 8.79338 | 5048 ft | 265 kts | 69° |
| 2026-05-06 14:10 | 47.34075 | 8.81576 | 4977 ft | 239 kts | 46° |
| 2026-05-06 14:10 | 47.35286 | 8.83073 | 4986 ft | 221 kts | 27° |
| 2026-05-06 14:11 | 47.36634 | 8.83819 | 5033 ft | 193 kts | 356° |
| 2026-05-06 14:11 | 47.37879 | 8.83528 | 5013 ft | 182 kts | 337° |
| 2026-05-06 14:11 | 47.39111 | 8.82919 | 5000 ft | 190 kts | 334° |
| 2026-05-06 14:11 | 47.40282 | 8.82065 | 4996 ft | 184 kts | 314° |
| 2026-05-06 14:12 | 47.41194 | 8.80744 | 5005 ft | 184 kts | 310° |
| 2026-05-06 14:12 | 47.42163 | 8.79495 | 4989 ft | 189 kts | 327° |
| 2026-05-06 14:12 | 47.43390 | 8.78716 | 4718 ft | 192 kts | 324° |
| 2026-05-06 14:12 | 47.44175 | 8.77283 | 4397 ft | 177 kts | 283° |
| 2026-05-06 14:13 | 47.44227 | 8.75510 | 4137 ft | 173 kts | 266° |
| 2026-05-06 14:13 | 47.44302 | 8.73733 | 3887 ft | 171 kts | 274° |
| 2026-05-06 14:13 | 47.44453 | 8.72008 | 3631 ft | 167 kts | 275° |
| 2026-05-06 14:13 | 47.44607 | 8.70330 | 3397 ft | 162 kts | 275° |
| 2026-05-06 14:14 | 47.44751 | 8.68690 | 3172 ft | 161 kts | 274° |
| 2026-05-06 14:14 | 47.44889 | 8.67057 | 2925 ft | 160 kts | 274° |
| 2026-05-06 14:14 | 47.45014 | 8.65499 | 2687 ft | 144 kts | 273° |
| 2026-05-06 14:14 | 47.45181 | 8.64085 | 2494 ft | 137 kts | 275° |
| 2026-05-06 14:15 | 47.45265 | 8.62709 | 2302 ft | 133 kts | 272° |
| 2026-05-06 14:15 | 47.45353 | 8.61352 | 2088 ft | 133 kts | 275° |
| 2026-05-06 14:15 | 47.45443 | 8.59990 | 1889 ft | 133 kts | 276° |
| 2026-05-06 14:15 | 47.45548 | 8.58632 | 1687 ft | 133 kts | 275° |
| 2026-05-06 14:16 | 47.45648 | 8.57277 | 1505 ft | 132 kts | 274° |
| 2026-05-06 14:16 | 47.45736 | 8.55987 | 1415 ft | 111 kts | 276° |
| 2026-05-06 14:16 | 47.45796 | 8.55147 | 1402 ft | 48 kts | 276° |
| 2026-05-06 14:16 | 47.45776 | 8.54882 | 1388 ft | 21 kts | 218° |
| 2026-05-06 14:17 | 47.45654 | 8.54911 | 1394 ft | 18 kts | 156° |
| 2026-05-06 14:17 | 47.45538 | 8.54993 | 1396 ft | 19 kts | 155° |
| 2026-05-06 14:17 | 47.45494 | 8.55097 | 1401 ft | 10 kts | 50° |
| 2026-05-06 14:17 | 47.45560 | 8.55130 | 1398 ft | 9 kts | 14° |
| 2026-05-06 14:18 | 47.45616 | 8.55158 | 1396 ft | 9 kts | 19° |
| 2026-05-06 14:18 | 47.45683 | 8.55221 | 1400 ft | 9 kts | 76° |
| 2026-05-06 14:18 | 47.45666 | 8.55310 | 1400 ft | 13 kts | 131° |
| 2026-05-06 14:18 | 47.45596 | 8.55355 | 1404 ft | 9 kts | 156° |
| 2026-05-06 14:19 | 47.45541 | 8.55398 | 1407 ft | 6 kts | 141° |
| 2026-05-06 14:19 | 47.45528 | 8.55469 | 1408 ft | 12 kts | 97° |
| 2026-05-06 14:19 | 47.45522 | 8.55556 | 1406 ft | 5 kts | 97° |
| 2026-05-06 14:19 | 47.45506 | 8.55577 | 1412 ft | 4 kts | 158° |
| 2026-05-06 14:20 | 47.45471 | 8.55575 | 1407 ft | 6 kts | 187° |
| 2026-05-06 14:20 | 47.45442 | 8.55570 | 1407 ft | 2 kts | 186° |
| 2026-05-06 14:20 | 47.45440 | 8.55569 | 1407 ft | 0 kts | 186° |